createdAt,value
2022-07-29T17:36:57.049Z,0.70
2022-07-29T17:39:24.282Z,1.00
2022-07-29T17:41:50.900Z,1.10
2022-07-29T17:44:17.434Z,0.95
2022-07-29T17:46:45.774Z,0.98
2022-07-29T17:49:12.795Z,1.10
2022-07-29T17:51:39.392Z,1.27
2022-07-29T17:54:06.165Z,0.82
2022-07-29T17:56:32.783Z,0.95
2022-07-29T17:59:01.570Z,1.00
2022-07-29T18:01:33.631Z,1.00
2022-07-29T18:04:00.439Z,1.02
2022-07-29T18:06:27.082Z,0.82
2022-07-29T18:08:53.930Z,0.70
2022-07-29T18:11:20.476Z,1.00
2022-07-29T18:13:47.322Z,1.00
2022-07-29T18:16:15.821Z,1.00
2022-07-29T18:18:44.958Z,0.73
2022-07-29T18:21:12.262Z,0.68
2022-07-29T18:23:40.577Z,0.80
2022-07-29T18:26:07.371Z,0.90
2022-07-29T18:28:34.157Z,0.75
2022-07-29T18:31:04.685Z,0.70
2022-07-29T18:33:32.658Z,0.80
2022-07-29T18:36:10.643Z,1.02
2022-07-29T18:38:41.896Z,0.65
2022-07-29T18:41:08.447Z,0.95
2022-07-29T18:43:35.191Z,0.80
2022-07-29T18:46:06.167Z,1.08
2022-07-29T18:48:34.086Z,0.98
2022-07-29T18:51:01.957Z,1.40
2022-07-29T18:53:37.469Z,1.38
2022-07-29T18:56:04.607Z,1.45
2022-07-29T18:58:33.020Z,1.60
2022-07-29T19:01:00.300Z,1.80
2022-07-29T19:03:26.892Z,1.55
2022-07-29T19:05:53.427Z,1.75
2022-07-29T19:08:28.133Z,1.60
2022-07-29T19:10:54.685Z,1.50
2022-07-29T19:13:21.387Z,1.90
2022-07-29T19:15:49.818Z,1.95
2022-07-29T19:18:16.497Z,1.60
2022-07-29T19:20:43.349Z,1.75
2022-07-29T19:23:10.250Z,1.80
2022-07-29T19:25:37.505Z,1.80
2022-07-29T19:28:20.108Z,2.22
2022-07-29T19:30:46.710Z,2.00
2022-07-29T19:33:17.652Z,2.10
2022-07-29T19:35:50.375Z,2.30
2022-07-29T19:38:19.468Z,2.28
2022-07-29T19:40:46.020Z,2.42
2022-07-29T19:43:49.626Z,2.00
2022-07-29T19:46:02.950Z,1.83
2022-07-29T19:48:29.662Z,2.17
2022-07-29T19:50:56.391Z,2.60
2022-07-29T19:53:23.152Z,2.25
2022-07-29T19:55:49.804Z,2.42
2022-07-29T19:58:16.458Z,2.30
2022-07-29T20:00:43.572Z,1.95
2022-07-29T20:03:10.362Z,2.20
2022-07-29T20:05:37.816Z,2.42
2022-07-29T20:08:06.265Z,2.50
2022-07-29T20:10:37.974Z,2.50
2022-07-29T20:13:04.519Z,2.80
2022-07-29T20:15:31.107Z,2.13
2022-07-29T20:17:57.881Z,2.50
2022-07-29T20:20:25.246Z,2.53
